Αρχική σελίδα
METAR-TAF:

METAR-TAF

Αεροδρόμια :

Vanua Lava, Βανουάτου

γεωγραφικό πλάτος: 13-51-06S, γεωγραφικό μήκος: 167-32-13E, υψόμετρο: 2 μ

Παρών καιρός

Η αναφορά έγινε 2 ώρες και 43 λεπτά πριν, στις 03:00 UTC
Άνεμος 5 kt από Α/NA
Θερμοκρασία 29°C
Υγρασία 79%
Πίεση 1012 hPa
Ορατότητα 10 χλμ και άνω
Αρκετά νέφη σε ύψος 1800 πόδια
Νεφοσκεπής σε ύψος 4000 πόδια

METAR: NVSC 250300Z 12005KT 9999 BKN018 OVC040 29/25 Q1012

Χρόνος: 16:43 (05:43 UTC)

Πρόγνωση Καιρού

Η αναφορά έγινε 6 ώρες και 43 λεπτά πριν, στις 23:00 UTC
Η πρόγνωση ισχύει από τις 25 στις 00 UTC έως τις 25 στις 24 UTC
Άνεμος 12 kt από Ν/NA
Ορατότητα: 9000 μ
Διάσπαρτα νέφη σε ύψος 2000 πόδια
Αρκετά νέφη σε ύψος 11000 πόδια
Αρκετά νέφη σε ύψος 1800 πόδια
Νεφοσκεπής σε ύψος 9000 πόδια
Όμβροι,

TAF: NVSC 242300Z 2500/2524 16012KT 9999 SCT020 BKN110 INTER 2500/2506 9000 SHRA BKN018 OVC090

Μετεωρολογικές αναφορές και προγνώσεις για περισσότερα από 4000 αεροδρόμια (δελτία METAR και TAF).

Οι διαθέσιμοι σταθμοί απεικονίζονται στο χάρτη με κίτρινες και κόκκινες κουκκίδες.

Μετακινήστε το ποντίκι πάνω από τις κουκκίδες για να δείτε το όνομα του σταθμού.

Στη συνέχεια, κάντε κλικ για να δείτε τις μετεωρολογικές αναφορές και τις προγνώσεις καιρού.

Για να αλλάξετε το χάρτη: κάντε κλικ στα πράσινα κουμπιά με τον μαύρο σταυρό για να ζουμάρετε, στο πράσινο κουμπί με την παύλα για να αφαιρέσετε το ζουμ ή στα πράσινα βέλη για να αντιπαραβάλλετε χάρτες.


METAR-TAF: